createdAt,value
2022-08-26T00:01:54.433Z,5.75
2022-08-26T00:04:25.302Z,6.45
2022-08-26T00:06:54.405Z,5.93
2022-08-26T00:09:22.250Z,7.32
2022-08-26T00:11:49.678Z,5.78
2022-08-26T00:14:18.320Z,5.45
2022-08-26T00:16:47.645Z,6.40
2022-08-26T00:19:20.786Z,6.40
2022-08-26T00:21:49.840Z,6.50
2022-08-26T00:24:20.846Z,6.18
2022-08-26T00:26:49.655Z,6.38
2022-08-26T00:29:17.862Z,5.90
2022-08-26T00:31:45.643Z,6.40
2022-08-26T00:34:15.335Z,5.90
2022-08-26T00:36:43.488Z,5.35
2022-08-26T00:39:11.553Z,5.15
2022-08-26T00:41:40.982Z,5.60
2022-08-26T00:44:11.050Z,5.85
2022-08-26T00:46:49.000Z,5.13
2022-08-26T00:49:21.607Z,4.95
2022-08-26T00:51:55.467Z,4.72
2022-08-26T00:54:27.318Z,5.03
2022-08-26T00:56:56.497Z,5.43
2022-08-26T00:59:25.295Z,4.82
2022-08-26T01:01:53.305Z,4.60
2022-08-26T01:04:22.804Z,5.07
2022-08-26T01:06:53.715Z,4.47
2022-08-26T01:09:23.149Z,4.90
2022-08-26T01:11:55.173Z,4.75
2022-08-26T01:14:24.375Z,4.65
2022-08-26T01:16:51.635Z,4.28
2022-08-26T01:19:26.944Z,5.00
2022-08-26T01:22:10.488Z,4.15
2022-08-26T01:24:40.395Z,4.13
2022-08-26T01:27:10.564Z,4.22
2022-08-26T01:29:40.831Z,4.57
2022-08-26T01:32:10.857Z,4.60
2022-08-26T01:34:39.824Z,4.25
2022-08-26T01:37:18.432Z,4.55
2022-08-26T01:39:50.044Z,4.25
2022-08-26T01:42:19.932Z,4.50
2022-08-26T01:44:59.297Z,4.63
2022-08-26T01:47:29.949Z,4.25
2022-08-26T01:50:03.044Z,4.53
2022-08-26T01:52:33.554Z,4.72
2022-08-26T01:55:01.083Z,4.63
2022-08-26T01:57:29.053Z,4.32
2022-08-26T02:00:00.083Z,4.90
2022-08-26T02:02:27.844Z,4.03
2022-08-26T02:05:03.439Z,4.00
2022-08-26T02:07:33.272Z,4.05
2022-08-26T02:10:00.723Z,3.72
2022-08-26T02:12:28.295Z,3.65
2022-08-26T02:14:59.285Z,3.97
2022-08-26T02:17:37.318Z,4.38
2022-08-26T02:20:07.068Z,4.68
2022-08-26T02:22:41.470Z,4.38
2022-08-26T02:25:30.944Z,4.45
2022-08-26T02:27:58.215Z,4.15
2022-08-26T02:30:32.051Z,4.22
2022-08-26T02:33:03.766Z,5.35
2022-08-26T02:35:32.964Z,4.95
2022-08-26T02:38:01.159Z,4.47
2022-08-26T02:40:34.816Z,4.38
2022-08-26T02:43:03.306Z,4.85
2022-08-26T02:45:30.953Z,5.05
2022-08-26T02:47:58.721Z,4.13
2022-08-26T02:50:27.422Z,4.93
2022-08-26T02:52:55.467Z,4.28
2022-08-26T02:55:24.717Z,4.50
2022-08-26T02:57:52.419Z,4.28
2022-08-26T03:00:19.847Z,3.63
2022-08-26T03:02:47.105Z,3.83
2022-08-26T03:05:16.715Z,3.78
2022-08-26T03:07:44.176Z,4.20
2022-08-26T03:10:13.197Z,3.90
2022-08-26T03:12:42.972Z,4.15
2022-08-26T03:15:17.929Z,4.57
2022-08-26T03:17:50.235Z,4.97
2022-08-26T03:20:18.676Z,4.72
2022-08-26T03:22:46.129Z,4.28
2022-08-26T03:25:15.791Z,4.35
2022-08-26T03:27:43.228Z,4.85
2022-08-26T03:30:31.175Z,4.25
2022-08-26T03:32:58.877Z,4.63
2022-08-26T03:35:26.582Z,4.65
2022-08-26T03:37:53.877Z,5.00
2022-08-26T03:40:21.661Z,4.70
2022-08-26T03:42:50.896Z,4.60
2022-08-26T03:45:19.840Z,5.10
2022-08-26T03:47:48.051Z,4.43
2022-08-26T03:50:22.582Z,5.32
2022-08-26T03:52:51.614Z,4.57
2022-08-26T03:55:23.668Z,4.47
2022-08-26T03:57:52.161Z,5.35
2022-08-26T04:00:19.713Z,4.85
2022-08-26T04:02:51.066Z,4.45
2022-08-26T04:05:22.711Z,4.88
2022-08-26T04:07:51.297Z,4.53
2022-08-26T04:10:29.325Z,5.20
2022-08-26T04:12:59.276Z,4.03
2022-08-26T04:15:27.173Z,4.30
2022-08-26T04:17:55.835Z,4.22
2022-08-26T04:20:25.059Z,4.60
2022-08-26T04:22:52.969Z,5.10
2022-08-26T04:25:20.502Z,5.43
2022-08-26T04:27:48.504Z,5.10
2022-08-26T04:30:16.726Z,4.88
2022-08-26T04:32:44.386Z,6.32
2022-08-26T04:35:11.660Z,5.68
2022-08-26T04:37:40.143Z,6.40
2022-08-26T04:40:11.143Z,6.50
2022-08-26T04:42:39.753Z,6.18
2022-08-26T04:45:10.152Z,5.00
2022-08-26T04:47:37.814Z,5.50
2022-08-26T04:50:07.473Z,5.47
2022-08-26T04:52:36.246Z,5.32
2022-08-26T04:55:05.996Z,6.13
2022-08-26T04:57:35.049Z,6.55
2022-08-26T05:00:08.312Z,5.10
2022-08-26T05:05:04.531Z,6.35
2022-08-26T05:07:31.892Z,6.57
2022-08-26T05:09:59.136Z,6.50
2022-08-26T05:12:27.899Z,6.20
2022-08-26T05:14:55.359Z,7.05
2022-08-26T05:17:22.751Z,6.22
2022-08-26T05:19:50.708Z,6.22
2022-08-26T05:22:18.311Z,6.45
2022-08-26T05:24:46.471Z,6.22
2022-08-26T05:27:14.336Z,5.53
2022-08-26T05:29:42.406Z,7.05
2022-08-26T05:32:11.589Z,6.20
2022-08-26T05:34:38.811Z,5.72
2022-08-26T05:37:06.776Z,5.90
2022-08-26T05:39:34.364Z,5.97
2022-08-26T05:42:02.218Z,5.70
2022-08-26T05:44:29.585Z,5.90
2022-08-26T05:47:16.763Z,6.00
2022-08-26T05:49:49.474Z,6.10
2022-08-26T05:52:19.827Z,6.20
2022-08-26T05:54:47.752Z,6.50
2022-08-26T05:57:15.564Z,7.50
2022-08-26T05:59:42.789Z,7.47
2022-08-26T06:02:10.250Z,7.32
2022-08-26T06:04:37.512Z,7.20
2022-08-26T06:07:05.496Z,6.80
2022-08-26T06:09:38.611Z,6.97
2022-08-26T06:12:06.054Z,6.55
2022-08-26T06:14:33.416Z,6.13
2022-08-26T06:17:00.842Z,6.68
2022-08-26T06:19:32.906Z,6.75
2022-08-26T06:22:23.442Z,6.03
2022-08-26T06:25:09.945Z,9.13
2022-08-26T06:27:37.332Z,7.30
2022-08-26T06:30:05.155Z,6.57
2022-08-26T06:32:33.563Z,7.32
2022-08-26T06:35:00.911Z,7.53
2022-08-26T06:37:28.799Z,7.45
2022-08-26T06:39:56.585Z,9.13
2022-08-26T06:42:25.176Z,7.53
2022-08-26T06:44:52.515Z,7.22
2022-08-26T06:47:19.727Z,9.18
2022-08-26T06:49:47.195Z,8.57
2022-08-26T06:52:21.196Z,9.93
2022-08-26T06:54:51.588Z,8.98
2022-08-26T06:57:20.311Z,8.68
2022-08-26T06:59:48.757Z,6.78
2022-08-26T07:02:18.731Z,9.60
2022-08-26T07:04:47.759Z,7.50
2022-08-26T07:07:15.885Z,8.95
2022-08-26T07:09:43.393Z,8.40
2022-08-26T07:12:10.691Z,11.32
2022-08-26T07:14:38.485Z,8.77
2022-08-26T07:17:08.506Z,9.30
2022-08-26T07:19:38.306Z,9.48
2022-08-26T07:22:06.964Z,8.68
2022-08-26T07:24:38.511Z,9.25
2022-08-26T07:27:09.731Z,9.88
2022-08-26T07:29:39.485Z,8.57
2022-08-26T07:32:08.115Z,10.85
2022-08-26T07:34:37.829Z,9.25
2022-08-26T07:37:05.978Z,8.93
2022-08-26T07:39:36.506Z,9.65
2022-08-26T07:42:07.745Z,10.02
2022-08-26T07:44:37.465Z,9.43
2022-08-26T07:47:10.203Z,10.02
2022-08-26T07:49:52.649Z,8.65
2022-08-26T07:52:25.316Z,8.70
2022-08-26T07:54:54.354Z,9.02
2022-08-26T07:57:21.683Z,9.70
2022-08-26T07:59:52.202Z,10.88
2022-08-26T08:02:23.177Z,10.02
2022-08-26T08:04:51.662Z,8.20
2022-08-26T08:07:19.014Z,9.13
2022-08-26T08:09:49.624Z,7.80
2022-08-26T08:12:20.102Z,7.95
2022-08-26T08:14:48.759Z,8.82
2022-08-26T08:17:25.108Z,8.02
2022-08-26T08:19:52.384Z,7.55
2022-08-26T08:22:24.100Z,7.70
2022-08-26T08:24:53.066Z,8.13
2022-08-26T08:27:23.814Z,8.15
2022-08-26T08:29:54.405Z,8.13
2022-08-26T08:32:23.672Z,7.88
2022-08-26T08:34:51.211Z,8.55
2022-08-26T08:37:18.958Z,7.65
2022-08-26T08:39:46.331Z,7.85
2022-08-26T08:42:43.689Z,7.78
2022-08-26T08:45:30.447Z,9.48
2022-08-26T08:48:02.708Z,6.70
2022-08-26T08:50:42.870Z,8.63
2022-08-26T08:53:22.840Z,8.43
2022-08-26T08:56:07.984Z,7.05
2022-08-26T08:58:49.155Z,6.82
2022-08-26T09:01:28.146Z,6.57
2022-08-26T09:04:17.253Z,5.88
2022-08-26T09:06:47.148Z,7.82
2022-08-26T09:09:23.712Z,6.68
2022-08-26T09:11:51.123Z,6.70
2022-08-26T09:14:18.763Z,6.50
2022-08-26T09:17:07.328Z,6.80
2022-08-26T09:19:43.209Z,7.05
2022-08-26T09:22:10.711Z,7.47
2022-08-26T09:24:42.117Z,7.00
2022-08-26T09:27:53.735Z,6.97
2022-08-26T09:30:26.878Z,7.22
2022-08-26T09:33:10.792Z,7.30
2022-08-26T09:35:41.247Z,6.53
2022-08-26T09:38:26.840Z,7.10
2022-08-26T09:41:05.122Z,6.07
2022-08-26T09:43:32.860Z,7.10
2022-08-26T09:46:23.276Z,7.78
2022-08-26T09:48:51.807Z,7.07
2022-08-26T09:51:22.439Z,7.30
2022-08-26T09:53:52.288Z,7.70
2022-08-26T09:56:34.918Z,6.47
2022-08-26T09:59:04.657Z,6.32
2022-08-26T10:01:38.245Z,6.85
2022-08-26T10:04:10.380Z,6.13
2022-08-26T10:06:54.494Z,6.63
2022-08-26T10:09:23.538Z,6.68
2022-08-26T10:11:55.139Z,5.85
2022-08-26T10:14:28.088Z,7.13
2022-08-26T10:17:17.003Z,6.68
2022-08-26T10:19:56.855Z,5.95
2022-08-26T10:22:37.696Z,6.20
2022-08-26T10:25:09.943Z,5.72
2022-08-26T10:27:53.437Z,6.70
2022-08-26T10:30:23.695Z,6.03
2022-08-26T10:33:14.538Z,5.85
2022-08-26T10:36:05.975Z,5.47
2022-08-26T10:38:37.660Z,5.13
2022-08-26T10:41:16.795Z,5.30
2022-08-26T10:43:50.084Z,5.32
2022-08-26T10:46:22.431Z,5.77
2022-08-26T10:49:00.279Z,5.85
2022-08-26T10:51:38.637Z,6.25
2022-08-26T10:54:17.973Z,5.93
2022-08-26T10:56:57.179Z,6.70
2022-08-26T10:59:47.385Z,6.20
2022-08-26T11:02:47.185Z,5.53
2022-08-26T11:05:23.972Z,5.38
2022-08-26T11:07:56.046Z,5.57
2022-08-26T11:10:24.288Z,5.13
2022-08-26T11:13:03.732Z,6.18
2022-08-26T11:15:31.549Z,4.97
2022-08-26T11:18:07.949Z,5.32
2022-08-26T11:20:46.001Z,5.13
2022-08-26T11:23:20.475Z,5.63
2022-08-26T11:26:10.073Z,5.88
2022-08-26T11:28:49.788Z,4.85
2022-08-26T11:31:26.115Z,4.07
2022-08-26T11:34:01.239Z,5.40
2022-08-26T11:36:32.759Z,5.70
2022-08-26T11:39:03.363Z,4.72
2022-08-26T11:41:31.873Z,4.80
2022-08-26T11:43:59.720Z,5.13
2022-08-26T11:46:35.671Z,4.55
2022-08-26T11:49:06.424Z,5.15
2022-08-26T11:51:40.097Z,4.57
2022-08-26T11:54:30.702Z,5.18
2022-08-26T11:57:09.485Z,5.35
2022-08-26T11:59:42.326Z,4.78
2022-08-26T12:02:17.786Z,4.93
2022-08-26T12:04:48.780Z,5.32
2022-08-26T12:07:18.451Z,5.00
2022-08-26T12:10:02.237Z,4.25
2022-08-26T12:12:34.957Z,4.55
2022-08-26T12:15:14.669Z,4.50
2022-08-26T12:17:43.860Z,4.90
2022-08-26T12:20:45.734Z,4.68
2022-08-26T12:23:41.163Z,5.00
2022-08-26T12:26:11.504Z,4.45
2022-08-26T12:28:44.550Z,4.82
2022-08-26T12:31:19.358Z,4.72
2022-08-26T12:33:48.872Z,4.50
2022-08-26T12:36:27.517Z,5.78
2022-08-26T12:38:58.287Z,5.28
2022-08-26T12:41:59.782Z,4.80
2022-08-26T12:44:53.191Z,5.07
2022-08-26T12:47:42.174Z,5.70
2022-08-26T12:50:18.983Z,4.97
2022-08-26T12:53:25.025Z,5.22
2022-08-26T12:55:54.562Z,5.35
2022-08-26T12:58:32.835Z,4.45
2022-08-26T13:01:06.455Z,5.70
2022-08-26T13:03:33.742Z,5.18
2022-08-26T13:06:22.634Z,4.82
2022-08-26T13:08:53.074Z,5.15
2022-08-26T13:11:24.915Z,4.75
2022-08-26T13:14:07.972Z,5.37
2022-08-26T13:16:36.614Z,5.25
2022-08-26T13:19:10.428Z,4.70
2022-08-26T13:21:43.996Z,4.75
2022-08-26T13:24:14.523Z,4.85
2022-08-26T13:26:43.792Z,4.53
2022-08-26T13:29:12.529Z,5.40
2022-08-26T13:31:42.107Z,5.93
2022-08-26T13:34:12.067Z,4.65
2022-08-26T13:36:39.266Z,4.68
2022-08-26T13:39:06.873Z,5.18
2022-08-26T13:41:34.427Z,5.35
2022-08-26T13:44:01.816Z,4.85
2022-08-26T13:46:29.518Z,4.97
2022-08-26T13:48:57.728Z,4.75
2022-08-26T13:51:25.987Z,5.38
2022-08-26T13:53:53.725Z,4.25
2022-08-26T13:56:21.816Z,5.00
2022-08-26T13:58:49.475Z,5.22
2022-08-26T14:01:17.559Z,4.80
2022-08-26T14:03:46.141Z,6.00
2022-08-26T14:06:13.652Z,5.32
2022-08-26T14:08:43.038Z,5.47
2022-08-26T14:11:10.719Z,4.65
2022-08-26T14:13:39.187Z,5.57
2022-08-26T14:16:14.522Z,6.03
2022-08-26T14:18:48.585Z,5.05
2022-08-26T14:21:18.474Z,5.30
2022-08-26T14:23:45.742Z,4.57
2022-08-26T14:26:16.807Z,5.35
2022-08-26T14:28:55.221Z,4.75
2022-08-26T14:31:23.857Z,4.80
2022-08-26T14:33:51.252Z,4.80
2022-08-26T14:36:33.865Z,4.93
2022-08-26T14:39:10.090Z,4.47
2022-08-26T14:41:45.871Z,4.53
2022-08-26T14:44:24.499Z,4.68
2022-08-26T14:46:53.122Z,5.57
2022-08-26T14:49:22.463Z,5.13
2022-08-26T14:51:50.443Z,4.78
2022-08-26T14:54:19.060Z,4.35
2022-08-26T14:56:51.247Z,5.90
2022-08-26T14:59:25.423Z,4.80
2022-08-26T15:01:54.363Z,4.57
2022-08-26T15:04:23.052Z,4.10
2022-08-26T15:06:51.721Z,4.88
2022-08-26T15:09:19.848Z,4.38
2022-08-26T15:11:47.806Z,4.85
2022-08-26T15:14:19.505Z,5.15
2022-08-26T15:16:51.168Z,5.15
2022-08-26T15:19:18.810Z,4.72
2022-08-26T15:21:47.152Z,4.70
2022-08-26T15:24:17.003Z,4.90
2022-08-26T15:26:45.274Z,4.40
2022-08-26T15:29:12.930Z,5.15
2022-08-26T15:31:42.288Z,4.63
2022-08-26T15:34:16.025Z,4.63
2022-08-26T15:36:46.234Z,5.00
2022-08-26T15:39:15.218Z,4.90
2022-08-26T15:41:42.622Z,4.68
2022-08-26T15:44:10.824Z,4.93
2022-08-26T15:46:39.136Z,4.70
2022-08-26T15:49:07.679Z,5.05
2022-08-26T15:51:45.554Z,5.10
2022-08-26T15:54:14.167Z,4.38
2022-08-26T15:56:41.565Z,4.45
2022-08-26T15:59:11.718Z,4.20
2022-08-26T16:01:39.939Z,4.55
2022-08-26T16:04:07.363Z,4.70
2022-08-26T16:06:37.394Z,4.45
2022-08-26T16:09:05.803Z,5.10
2022-08-26T16:11:34.464Z,4.82
2022-08-26T16:14:02.385Z,4.82
2022-08-26T16:16:29.708Z,4.25
2022-08-26T16:18:57.025Z,4.53
2022-08-26T16:21:30.391Z,5.18
2022-08-26T16:23:58.675Z,5.10
2022-08-26T16:26:29.156Z,4.55
2022-08-26T16:28:56.403Z,5.38
2022-08-26T16:31:24.072Z,4.43
2022-08-26T16:33:51.455Z,4.45
2022-08-26T16:36:19.849Z,4.20
2022-08-26T16:38:53.300Z,4.93
2022-08-26T16:41:21.355Z,4.70
2022-08-26T16:43:48.872Z,4.57
2022-08-26T16:46:16.370Z,5.05
2022-08-26T16:48:44.623Z,5.20
2022-08-26T16:51:16.298Z,4.97
2022-08-26T16:53:45.770Z,5.63
2022-08-26T16:56:19.123Z,4.82
2022-08-26T16:58:48.247Z,4.88
2022-08-26T17:01:16.675Z,5.53
2022-08-26T17:03:43.927Z,4.63
2022-08-26T17:06:11.432Z,5.50
2022-08-26T17:08:41.021Z,5.72
2022-08-26T17:11:09.075Z,5.65
2022-08-26T17:13:39.070Z,4.80
2022-08-26T17:16:08.085Z,4.45
2022-08-26T17:18:36.327Z,5.10
2022-08-26T17:21:06.429Z,4.50
2022-08-26T17:23:34.080Z,4.70
2022-08-26T17:26:01.326Z,4.85
2022-08-26T17:28:28.668Z,4.50
2022-08-26T17:30:57.733Z,4.68
2022-08-26T17:33:25.836Z,5.10
2022-08-26T17:35:53.831Z,4.97
2022-08-26T17:38:22.060Z,4.78
2022-08-26T17:40:49.753Z,4.32
2022-08-26T17:43:18.031Z,4.15
2022-08-26T17:45:45.335Z,4.65
2022-08-26T17:48:13.081Z,5.00
2022-08-26T17:50:42.194Z,4.85
2022-08-26T17:53:18.423Z,5.25
2022-08-26T17:55:47.987Z,4.55
2022-08-26T17:58:23.367Z,4.93
2022-08-26T18:00:52.472Z,6.15
2022-08-26T18:03:19.700Z,6.32
2022-08-26T18:05:49.091Z,5.97
2022-08-26T18:08:16.422Z,5.65
2022-08-26T18:10:44.711Z,5.80
2022-08-26T18:13:12.356Z,5.05
2022-08-26T18:15:43.955Z,4.90
2022-08-26T18:18:12.939Z,5.95
2022-08-26T18:20:41.866Z,5.28
2022-08-26T18:23:09.693Z,4.78
2022-08-26T18:25:41.461Z,5.80
2022-08-26T18:28:09.222Z,5.05
2022-08-26T18:30:37.001Z,5.32
2022-08-26T18:33:04.364Z,5.25
2022-08-26T18:35:31.579Z,4.90
2022-08-26T18:38:10.439Z,4.95
2022-08-26T18:40:41.958Z,4.80
2022-08-26T18:43:09.608Z,5.18
2022-08-26T18:45:37.636Z,5.63
2022-08-26T18:48:05.417Z,5.22
2022-08-26T18:50:32.769Z,5.28
2022-08-26T18:53:02.448Z,5.47
2022-08-26T18:55:29.720Z,5.45
2022-08-26T18:57:57.012Z,4.55
2022-08-26T19:00:24.415Z,4.82
2022-08-26T19:02:52.347Z,5.05
2022-08-26T19:05:23.124Z,5.15
2022-08-26T19:07:51.664Z,5.05
2022-08-26T19:10:18.938Z,5.82
2022-08-26T19:12:46.447Z,5.30
2022-08-26T19:15:19.889Z,5.63
2022-08-26T19:17:48.107Z,5.95
2022-08-26T19:20:15.417Z,4.57
2022-08-26T19:22:42.643Z,5.43
2022-08-26T19:25:10.270Z,5.80
2022-08-26T19:27:37.984Z,5.25
2022-08-26T19:30:08.520Z,5.93
2022-08-26T19:32:36.143Z,6.22
2022-08-26T19:35:03.498Z,5.57
2022-08-26T19:37:30.708Z,8.23
2022-08-26T19:39:57.993Z,5.88
2022-08-26T19:42:25.383Z,5.88
2022-08-26T19:45:09.270Z,6.25
2022-08-26T19:47:53.545Z,6.28
2022-08-26T19:50:22.082Z,6.63
2022-08-26T19:52:49.643Z,6.32
2022-08-26T19:55:18.552Z,5.70
2022-08-26T19:57:45.870Z,5.95
2022-08-26T20:00:17.969Z,6.05
2022-08-26T20:02:45.358Z,6.30
2022-08-26T20:05:14.453Z,6.70
2022-08-26T20:07:41.739Z,6.15
2022-08-26T20:10:13.603Z,5.80
2022-08-26T20:12:42.147Z,5.93
2022-08-26T20:15:11.671Z,7.35
2022-08-26T20:17:39.153Z,7.18
2022-08-26T20:20:27.313Z,6.07
2022-08-26T20:23:02.454Z,5.90
2022-08-26T20:25:32.485Z,6.50
2022-08-26T20:28:00.735Z,6.90
2022-08-26T20:30:28.175Z,6.20
2022-08-26T20:32:55.932Z,6.47
2022-08-26T20:35:23.903Z,6.82
2022-08-26T20:37:51.168Z,5.88
2022-08-26T20:40:18.457Z,6.88
2022-08-26T20:42:45.713Z,6.32
2022-08-26T20:45:13.019Z,7.03
2022-08-26T20:47:40.253Z,7.45
2022-08-26T20:50:08.571Z,6.57
2022-08-26T20:52:35.836Z,7.10
2022-08-26T20:55:03.473Z,6.80
2022-08-26T20:57:30.720Z,7.05
2022-08-26T20:59:57.996Z,6.47
2022-08-26T21:02:25.264Z,6.43
2022-08-26T21:04:52.508Z,6.88
2022-08-26T21:07:20.743Z,6.47
2022-08-26T21:09:49.547Z,7.75
2022-08-26T21:12:18.895Z,6.90
2022-08-26T21:14:49.489Z,7.00
2022-08-26T21:17:17.412Z,7.65
2022-08-26T21:19:44.696Z,7.07
2022-08-26T21:22:12.347Z,6.97
2022-08-26T21:24:39.778Z,7.13
2022-08-26T21:27:07.051Z,7.05
2022-08-26T21:29:35.599Z,6.72
2022-08-26T21:32:03.189Z,7.97
2022-08-26T21:34:30.479Z,6.85
2022-08-26T21:36:58.188Z,6.88
2022-08-26T21:39:25.435Z,7.68
2022-08-26T21:41:52.672Z,7.10
2022-08-26T21:44:19.879Z,7.38
2022-08-26T21:46:47.088Z,8.02
2022-08-26T21:49:15.909Z,8.07
2022-08-26T21:51:47.011Z,7.15
2022-08-26T21:54:15.821Z,7.78
2022-08-26T21:56:46.729Z,8.18
2022-08-26T21:59:17.639Z,7.05
2022-08-26T22:01:44.964Z,7.82
2022-08-26T22:04:12.562Z,6.43
2022-08-26T22:06:54.591Z,8.00
2022-08-26T22:09:25.243Z,6.55
2022-08-26T22:11:53.354Z,5.97
2022-08-26T22:14:30.371Z,6.70
2022-08-26T22:16:59.214Z,6.22
2022-08-26T22:19:26.632Z,6.82
2022-08-26T22:21:55.033Z,6.43
2022-08-26T22:24:24.652Z,6.32
2022-08-26T22:26:53.134Z,6.10
2022-08-26T22:29:21.515Z,6.00
2022-08-26T22:31:48.754Z,6.35
2022-08-26T22:34:17.384Z,6.32
2022-08-26T22:36:46.915Z,6.75
2022-08-26T22:39:16.381Z,6.63
2022-08-26T22:41:44.954Z,7.35
2022-08-26T22:44:12.607Z,6.47
2022-08-26T22:46:41.615Z,5.65
2022-08-26T22:49:12.068Z,6.25
2022-08-26T22:51:39.367Z,6.28
2022-08-26T22:54:06.742Z,7.60
2022-08-26T22:56:34.734Z,6.80
2022-08-26T22:59:02.042Z,8.25
2022-08-26T23:01:29.427Z,6.85
2022-08-26T23:03:56.683Z,7.10
2022-08-26T23:06:24.166Z,7.25
2022-08-26T23:08:51.920Z,8.05
2022-08-26T23:11:19.300Z,7.70
2022-08-26T23:13:46.540Z,8.20
2022-08-26T23:16:14.083Z,8.45
2022-08-26T23:18:42.070Z,8.00
2022-08-26T23:21:10.582Z,7.20
2022-08-26T23:23:38.466Z,8.57
2022-08-26T23:26:07.792Z,7.70
2022-08-26T23:28:36.999Z,8.02
2022-08-26T23:31:05.753Z,9.00
2022-08-26T23:33:56.276Z,7.03
2022-08-26T23:36:25.649Z,8.63
2022-08-26T23:38:53.324Z,8.40
2022-08-26T23:41:24.112Z,8.98
2022-08-26T23:43:51.761Z,9.40
2022-08-26T23:46:20.070Z,9.93
2022-08-26T23:48:47.671Z,9.27
2022-08-26T23:51:33.468Z,9.70
2022-08-26T23:54:00.719Z,8.27
2022-08-26T23:56:29.109Z,8.98
2022-08-26T23:58:56.539Z,8.38
